createdAt,value
2022-11-08T18:59:30.955Z,8.00
2022-11-08T19:01:58.049Z,7.80
2022-11-08T19:04:25.281Z,7.80
2022-11-08T19:06:55.092Z,7.80
2022-11-08T19:09:22.287Z,7.90
2022-11-08T19:11:49.531Z,7.80
2022-11-08T19:14:16.793Z,7.90
2022-11-08T19:16:43.947Z,8.00
2022-11-08T19:19:13.459Z,8.00
2022-11-08T19:21:44.462Z,8.20
2022-11-08T19:24:13.806Z,8.30
2022-11-08T19:26:44.494Z,8.40
2022-11-08T19:29:13.297Z,8.50
2022-11-08T19:31:45.449Z,8.60
2022-11-08T19:34:12.420Z,8.70
2022-11-08T19:36:43.460Z,8.70
2022-11-08T19:39:13.463Z,8.80
2022-11-08T19:41:40.616Z,8.80
2022-11-08T19:44:07.628Z,8.80
2022-11-08T19:46:38.994Z,8.70
2022-11-08T19:49:06.001Z,8.70
2022-11-08T19:51:36.674Z,8.60
2022-11-08T19:54:08.693Z,8.50
2022-11-08T19:57:03.307Z,8.50
2022-11-08T19:59:25.659Z,8.50
2022-11-08T20:01:53.072Z,8.50
2022-11-08T20:04:22.407Z,8.50
2022-11-08T20:06:49.590Z,8.60
2022-11-08T20:09:16.774Z,8.50
2022-11-08T20:11:45.939Z,8.60
2022-11-08T20:14:14.175Z,8.60
2022-11-08T20:16:49.246Z,8.60
2022-11-08T20:19:19.404Z,8.50
2022-11-08T20:21:54.573Z,8.40
2022-11-08T20:24:24.178Z,8.40
2022-11-08T20:26:55.227Z,8.30
2022-11-08T20:29:22.394Z,8.20
2022-11-08T20:31:56.527Z,8.20
2022-11-08T20:34:23.638Z,8.10
2022-11-08T20:36:50.853Z,8.10
2022-11-08T20:39:18.036Z,8.10
2022-11-08T20:41:45.801Z,8.10
2022-11-08T20:44:20.160Z,8.10
2022-11-08T20:46:50.209Z,8.20
2022-11-08T20:49:17.544Z,8.20
2022-11-08T20:51:46.902Z,8.20
2022-11-08T20:54:13.972Z,8.20
2022-11-08T20:56:43.095Z,8.20
2022-11-08T20:59:11.070Z,8.30
2022-11-08T21:01:40.504Z,8.30
2022-11-08T21:04:08.717Z,8.30
2022-11-08T21:06:36.641Z,8.30
2022-11-08T21:11:56.186Z,8.30
2022-11-08T21:14:25.669Z,8.30
2022-11-08T21:17:20.395Z,8.40
2022-11-08T21:19:42.995Z,8.40
2022-11-08T21:22:16.155Z,8.40
2022-11-08T21:24:44.557Z,8.40
2022-11-08T21:27:12.342Z,8.40
2022-11-08T21:29:41.520Z,8.40
2022-11-08T21:32:08.513Z,8.40
2022-11-08T21:34:39.672Z,8.40
2022-11-08T21:37:12.738Z,8.40
2022-11-08T21:39:42.596Z,8.30
2022-11-08T21:42:11.906Z,8.20
2022-11-08T21:44:41.222Z,8.10
2022-11-08T21:47:08.085Z,8.10
2022-11-08T21:49:35.084Z,8.00
2022-11-08T21:52:03.577Z,7.90
2022-11-08T21:54:30.749Z,7.80
2022-11-08T21:56:57.671Z,7.70
2022-11-08T21:59:24.583Z,7.60
2022-11-08T22:01:53.913Z,7.50
2022-11-08T22:04:23.172Z,7.50
2022-11-08T22:06:50.213Z,7.40
2022-11-08T22:09:17.198Z,7.40
2022-11-08T22:11:46.251Z,7.40
2022-11-08T22:14:15.518Z,7.30
2022-11-08T22:16:44.662Z,7.30
2022-11-08T22:19:12.054Z,7.30
2022-11-08T22:21:46.123Z,7.20
2022-11-08T22:24:20.236Z,7.20
2022-11-08T22:26:51.576Z,7.20
2022-11-08T22:29:19.250Z,7.20
2022-11-08T22:31:50.629Z,7.10
2022-11-08T22:34:17.765Z,7.10
2022-11-08T22:36:47.582Z,7.00
2022-11-08T22:39:21.884Z,7.00
